Le Moyen, Louisiana
Current Conditions -  °F | °C
As of 7:35 PM on Friday 28 Nov 2014 (Local Time) from KOPL Reporting Station
Clear Clear  
Wind Chill: 52°   Ceiling: Unl
Heat Index: 52°   Visibility: 10mi
Dew Point: 48°   Wind: 6mph
Humidity: 87%   Direction: 160°SSE
Pressure: 30.24"   Gusts: NA
Location:  30.8264°N, 92.0178°W
Report Text: KOPL 290135Z AUTO 16005KT 10SM CLR 11/09 A3024 RMK AO2 T01120091
Loading
Personal Weather Stations






























Interactive Weather Map New forecast layout! Learn more

10-Day Weather Forecast

Advertisements
Track Severe Weather on mobile